IDPK1: Verdigris River, Independence

Data processed at Thu May 23 2019 23:50


All information presented herein is the property of the government of the United States of America and may be revised or deleted at any time without prior notice.
Dissemination of this information without the expressed written consent of the Public Affairs Office, Tulsa District U.S. Army Corps of Engineers is strictly prohibited.
These data are gathered electronically and, as presented, have not undergone any form of quality control. These data are not guaranteed to be valid or correct.
Go to home page.
Go to station list.
Go to home page.

Upstream stations:

Downstream station:
Previous Day
Next Day
Current Day
    
SHEF ID:       IDPK1     VERDIGRIS R AT INDEPENDENCE, KS
STATION TYPE:  
Regulating: Stage =    30.00, Flow =    22615

               PRECIP     STAGE  RIV-FLOW  BAT-LOAD
                   in        ft       cfs      volt
              Ccp-Rev   Ccp-Rev   Ccp-Rev   Ccp-Rev
(US/Central)
05/23 00:00      0.04     41.45     49124     12.77
05/23 01:00      0.51     41.38     48718     12.77
05/23 02:00      0.00     41.24     47913     12.71
05/23 03:00      0.00     41.21     47742     12.77
05/23 04:00      0.00     41.02     46669     12.77
05/23 05:00      0.02     40.89     45946     12.71
05/23 06:00      0.00     40.87     45836     12.71
05/23 07:00      0.01     40.67     44741     12.71
05/23 08:00      0.00     40.50     43827     12.71
05/23 09:00      0.06     40.39     43243     12.71
05/23 10:00      0.04     40.23     42404     12.77
05/23 11:00      0.01     40.00     41220     12.71
05/23 12:00      0.00     39.90     40713     13.24
05/23 13:00      0.00     39.77     40061     13.65
05/23 14:00      0.00     39.64     39417     13.88
05/23 15:00      0.00     39.44     38441     13.71
05/23 16:00      0.01     39.25     37532     13.42
05/23 17:00      0.00     39.05     36592     13.53
05/23 18:00      0.00     38.87     35761     13.48
05/23 19:00      0.00     38.74     35171     13.00
05/23 20:00      0.00     38.56     34365     12.95
05/23 21:00      0.00     38.39     33617     12.89
05/23 22:00      0.00     38.22     32911     12.83
05/23 23:00      0.00     38.00     32013     12.83